createdAt,value
2023-05-13T00:00:54.997Z,52.83
2023-05-13T00:03:21.719Z,52.92
2023-05-13T00:05:48.424Z,53.13
2023-05-13T00:08:15.054Z,52.84
2023-05-13T00:10:41.593Z,52.73
2023-05-13T00:13:08.389Z,52.88
2023-05-13T00:15:34.972Z,52.82
2023-05-13T00:18:01.585Z,52.80
2023-05-13T00:20:30.610Z,52.70
2023-05-13T00:22:57.171Z,53.04
2023-05-13T00:25:24.164Z,52.83
2023-05-13T00:27:51.257Z,53.05
2023-05-13T00:30:18.122Z,53.17
2023-05-13T00:32:44.723Z,53.16
2023-05-13T00:35:11.342Z,53.02
2023-05-13T00:37:38.010Z,52.79
2023-05-13T00:40:05.003Z,52.91
2023-05-13T00:42:31.534Z,53.25
2023-05-13T00:44:58.038Z,53.02
2023-05-13T00:47:24.833Z,53.21
2023-05-13T00:49:52.048Z,53.09
2023-05-13T00:52:18.619Z,52.99
2023-05-13T00:54:45.298Z,52.96
2023-05-13T00:57:11.789Z,53.19
2023-05-13T00:59:38.361Z,53.26
2023-05-13T01:02:22.474Z,53.09
2023-05-13T01:04:58.204Z,52.88
2023-05-13T01:07:24.679Z,53.07
2023-05-13T01:10:11.592Z,53.01
2023-05-13T01:12:43.835Z,53.27
2023-05-13T01:15:15.096Z,53.13
2023-05-13T01:17:53.490Z,53.50
2023-05-13T01:20:24.596Z,52.92
2023-05-13T01:22:51.389Z,53.15
2023-05-13T01:25:17.935Z,53.02
2023-05-13T01:27:44.891Z,53.01
2023-05-13T01:30:12.122Z,53.12
2023-05-13T01:32:38.724Z,53.10
2023-05-13T01:35:07.370Z,53.14
2023-05-13T01:37:33.888Z,53.34
2023-05-13T01:40:01.031Z,53.03
2023-05-13T01:42:30.052Z,53.83
2023-05-13T01:44:57.591Z,53.37
2023-05-13T01:47:24.132Z,53.64
2023-05-13T01:49:50.754Z,53.38
2023-05-13T01:52:17.353Z,53.91
2023-05-13T01:54:44.007Z,53.12
2023-05-13T01:57:10.508Z,53.83
2023-05-13T01:59:37.406Z,53.30
2023-05-13T02:02:04.303Z,53.78
2023-05-13T02:04:30.892Z,53.84
2023-05-13T02:06:57.407Z,53.70
2023-05-13T02:09:23.902Z,54.00
2023-05-13T02:11:51.114Z,53.64
2023-05-13T02:14:17.746Z,53.44
2023-05-13T02:16:44.467Z,53.70
2023-05-13T02:19:11.094Z,53.34
2023-05-13T02:21:37.896Z,53.58
2023-05-13T02:24:04.673Z,53.98
2023-05-13T02:26:31.222Z,53.99
2023-05-13T02:28:57.766Z,53.65
2023-05-13T02:31:24.324Z,53.81
2023-05-13T02:33:50.911Z,54.04
2023-05-13T02:36:17.463Z,53.81
2023-05-13T02:38:44.059Z,53.77
2023-05-13T02:41:10.740Z,54.33
2023-05-13T02:43:37.650Z,53.98
2023-05-13T02:46:04.176Z,53.95
2023-05-13T02:48:31.058Z,54.20
2023-05-13T02:50:57.590Z,53.83
2023-05-13T02:53:24.342Z,54.51
2023-05-13T02:55:50.915Z,54.09
2023-05-13T02:58:17.444Z,54.21
2023-05-13T03:00:43.994Z,54.20
2023-05-13T03:03:10.716Z,54.27
2023-05-13T03:05:37.530Z,53.82
2023-05-13T03:08:04.815Z,54.16
2023-05-13T03:10:31.319Z,54.17
2023-05-13T03:12:57.888Z,54.24
2023-05-13T03:15:24.465Z,54.04
2023-05-13T03:17:51.041Z,54.56
2023-05-13T03:20:17.761Z,54.13
2023-05-13T03:22:44.742Z,54.61
2023-05-13T03:25:11.315Z,54.36
2023-05-13T03:27:38.881Z,54.29
2023-05-13T03:30:06.075Z,54.24
2023-05-13T03:32:32.653Z,54.50
2023-05-13T03:35:01.004Z,54.27
2023-05-13T03:37:27.733Z,54.83
2023-05-13T03:39:54.334Z,54.30
2023-05-13T03:42:21.082Z,54.68
2023-05-13T03:44:47.678Z,54.78
2023-05-13T03:47:14.201Z,54.43
2023-05-13T03:49:40.813Z,54.29
2023-05-13T03:52:10.307Z,54.61
2023-05-13T03:54:36.859Z,54.19
2023-05-13T03:57:03.497Z,54.37
2023-05-13T03:59:30.046Z,54.28
2023-05-13T04:01:56.599Z,54.64
2023-05-13T04:04:23.240Z,54.63
2023-05-13T04:06:49.818Z,54.39
2023-05-13T04:09:16.349Z,54.33
2023-05-13T04:11:42.914Z,54.66
2023-05-13T04:16:36.500Z,55.04
2023-05-13T04:19:03.350Z,55.14
2023-05-13T04:21:29.901Z,54.76
2023-05-13T04:23:56.408Z,55.00
2023-05-13T04:26:22.961Z,54.67
2023-05-13T04:28:49.448Z,54.54
2023-05-13T04:31:15.980Z,54.94
2023-05-13T04:33:42.571Z,54.92
2023-05-13T04:36:09.237Z,54.70
2023-05-13T04:38:35.811Z,55.08
2023-05-13T04:41:02.379Z,54.50
2023-05-13T04:43:29.222Z,54.66
2023-05-13T04:45:55.878Z,54.75
2023-05-13T04:48:22.412Z,55.24
2023-05-13T04:50:51.134Z,55.08
2023-05-13T04:53:18.126Z,54.70
2023-05-13T04:55:47.635Z,54.59
2023-05-13T04:58:14.187Z,54.37
2023-05-13T05:00:40.807Z,54.60
2023-05-13T05:03:07.404Z,55.06
2023-05-13T05:05:33.977Z,55.03
2023-05-13T05:08:00.684Z,54.17
2023-05-13T05:10:27.593Z,54.31
2023-05-13T05:12:54.274Z,54.37
2023-05-13T05:15:20.988Z,54.08
2023-05-13T05:17:47.641Z,54.25
2023-05-13T05:20:14.347Z,54.65
2023-05-13T05:22:42.193Z,54.24
2023-05-13T05:25:10.136Z,54.12
2023-05-13T05:27:36.643Z,54.04
2023-05-13T05:30:03.619Z,54.23
2023-05-13T05:32:30.201Z,54.04
2023-05-13T05:34:56.826Z,54.21
2023-05-13T05:37:23.433Z,54.19
2023-05-13T05:39:50.005Z,54.21
2023-05-13T05:42:16.631Z,53.81
2023-05-13T05:44:43.207Z,53.87
2023-05-13T05:47:09.743Z,53.82
2023-05-13T05:49:36.270Z,53.80
2023-05-13T05:52:03.152Z,53.53
2023-05-13T05:54:30.818Z,53.59
2023-05-13T05:56:57.464Z,53.77
2023-05-13T05:59:23.996Z,53.94
2023-05-13T06:01:50.538Z,53.92
2023-05-13T06:04:17.377Z,53.28
2023-05-13T06:06:44.137Z,53.50
2023-05-13T06:09:10.915Z,53.63
2023-05-13T06:11:37.551Z,53.61
2023-05-13T06:14:04.128Z,53.09
2023-05-13T06:16:30.802Z,53.52
2023-05-13T06:18:57.393Z,53.17
2023-05-13T06:21:23.962Z,53.57
2023-05-13T06:23:51.012Z,53.48
2023-05-13T06:26:17.510Z,52.91
2023-05-13T06:28:44.136Z,53.15
2023-05-13T06:31:10.729Z,52.72
2023-05-13T06:33:37.336Z,52.82
2023-05-13T06:36:04.744Z,52.72
2023-05-13T06:38:31.276Z,52.78
2023-05-13T06:40:57.807Z,52.58
2023-05-13T06:43:24.356Z,52.58
2023-05-13T06:45:50.938Z,52.89
2023-05-13T06:48:17.487Z,52.71
2023-05-13T06:50:44.095Z,52.91
2023-05-13T06:53:13.768Z,52.83
2023-05-13T06:55:41.805Z,52.96
2023-05-13T06:58:09.134Z,52.76
2023-05-13T07:00:40.428Z,52.82
2023-05-13T07:03:07.649Z,53.21
2023-05-13T07:05:34.823Z,52.79
2023-05-13T07:08:06.602Z,52.52
2023-05-13T07:10:34.034Z,52.98
2023-05-13T07:13:02.125Z,52.95
2023-05-13T07:15:28.909Z,53.23
2023-05-13T07:17:55.587Z,53.36
2023-05-13T07:20:23.581Z,53.04
2023-05-13T07:22:50.975Z,53.11
2023-05-13T07:25:18.526Z,53.24
2023-05-13T07:27:45.452Z,53.13
2023-05-13T07:30:12.650Z,53.17
2023-05-13T07:32:39.579Z,53.06
2023-05-13T07:35:07.169Z,53.50
2023-05-13T07:37:33.698Z,53.34
2023-05-13T07:40:00.209Z,53.31
2023-05-13T07:42:28.260Z,53.42
2023-05-13T07:44:54.778Z,53.23
2023-05-13T07:47:21.472Z,53.60
2023-05-13T07:49:48.041Z,53.43
2023-05-13T07:52:14.586Z,53.17
2023-05-13T07:54:41.138Z,53.61
2023-05-13T07:57:07.700Z,53.36
2023-05-13T07:59:34.278Z,53.39
2023-05-13T08:02:00.770Z,53.44
2023-05-13T08:04:27.726Z,53.74
2023-05-13T08:06:54.288Z,53.48
2023-05-13T08:09:20.848Z,53.46
2023-05-13T08:11:47.385Z,53.19
2023-05-13T08:14:13.932Z,53.67
2023-05-13T08:16:41.006Z,53.40
2023-05-13T08:19:07.719Z,53.61
2023-05-13T08:21:34.270Z,53.60
2023-05-13T08:24:00.828Z,53.22
2023-05-13T08:26:27.756Z,53.64
2023-05-13T08:28:55.213Z,53.57
2023-05-13T08:31:24.157Z,53.18
2023-05-13T08:33:51.747Z,53.19
2023-05-13T08:36:18.320Z,53.07
2023-05-13T08:38:44.869Z,53.37
2023-05-13T08:41:15.568Z,53.24
2023-05-13T08:43:47.074Z,53.22
2023-05-13T08:46:16.721Z,52.96
2023-05-13T08:48:43.933Z,53.12
2023-05-13T08:51:10.636Z,52.93
2023-05-13T08:53:39.133Z,53.30
2023-05-13T08:56:07.802Z,52.89
2023-05-13T08:58:34.348Z,52.95
2023-05-13T09:01:01.666Z,53.09
2023-05-13T09:03:29.209Z,53.24
2023-05-13T09:05:55.764Z,52.85
2023-05-13T09:08:22.305Z,53.19
2023-05-13T09:10:49.238Z,53.25
2023-05-13T09:13:18.161Z,52.81
2023-05-13T09:15:44.884Z,53.58
2023-05-13T09:18:12.782Z,52.90
2023-05-13T09:20:39.426Z,53.11
2023-05-13T09:23:08.333Z,52.92
2023-05-13T09:25:36.476Z,53.36
2023-05-13T09:28:05.808Z,53.13
2023-05-13T09:30:43.787Z,53.05
2023-05-13T09:33:21.889Z,52.70
2023-05-13T09:35:53.521Z,52.92
2023-05-13T09:38:22.282Z,52.84
2023-05-13T09:41:00.033Z,52.98
2023-05-13T09:43:28.950Z,52.56
2023-05-13T09:45:57.527Z,52.54
2023-05-13T09:48:29.519Z,52.80
2023-05-13T09:50:57.978Z,53.02
2023-05-13T09:53:28.487Z,52.57
2023-05-13T09:55:56.808Z,52.70
2023-05-13T09:58:25.505Z,52.34
2023-05-13T10:00:52.577Z,52.41
2023-05-13T10:03:19.529Z,52.36
2023-05-13T10:05:47.323Z,52.36
2023-05-13T10:08:15.531Z,52.41
2023-05-13T10:10:45.714Z,52.29
2023-05-13T10:13:15.468Z,52.03
2023-05-13T10:15:50.317Z,52.25
2023-05-13T10:18:17.945Z,52.21
2023-05-13T10:20:44.813Z,52.14
2023-05-13T10:23:12.698Z,51.83
2023-05-13T10:25:40.086Z,52.02
2023-05-13T10:28:06.790Z,51.78
2023-05-13T10:30:35.878Z,51.78
2023-05-13T10:33:03.971Z,51.58
2023-05-13T10:35:38.088Z,51.85
2023-05-13T10:38:44.511Z,51.53
2023-05-13T10:41:37.196Z,51.44
2023-05-13T10:44:03.981Z,51.58
2023-05-13T10:46:30.726Z,51.37
2023-05-13T10:48:59.842Z,51.67
2023-05-13T10:51:26.938Z,51.33
2023-05-13T10:53:55.722Z,51.36
2023-05-13T10:56:24.513Z,51.36
2023-05-13T10:59:05.176Z,51.54
2023-05-13T11:01:43.928Z,51.46
2023-05-13T11:04:19.529Z,51.67
2023-05-13T11:06:48.054Z,51.60
2023-05-13T11:09:29.443Z,51.26
2023-05-13T11:11:57.961Z,51.09
2023-05-13T11:14:30.243Z,50.94
2023-05-13T11:17:02.622Z,50.92
2023-05-13T11:19:36.047Z,51.24
2023-05-13T11:22:16.364Z,51.22
2023-05-13T11:24:46.253Z,50.67
2023-05-13T11:27:21.667Z,50.66
2023-05-13T11:29:52.629Z,50.53
2023-05-13T11:32:56.487Z,50.62
2023-05-13T11:35:33.620Z,50.37
2023-05-13T11:38:02.274Z,50.96
2023-05-13T11:40:29.884Z,50.52
2023-05-13T11:42:57.144Z,50.51
2023-05-13T11:45:25.149Z,50.84
2023-05-13T11:47:53.196Z,50.52
2023-05-13T11:50:27.304Z,50.58
2023-05-13T11:52:56.255Z,50.80
2023-05-13T11:55:27.101Z,50.18
2023-05-13T11:57:54.148Z,50.31
2023-05-13T12:00:31.584Z,50.16
2023-05-13T12:02:59.361Z,50.53
2023-05-13T12:05:26.882Z,50.57
2023-05-13T12:07:58.077Z,50.12
2023-05-13T12:10:26.575Z,50.27
2023-05-13T12:12:53.946Z,49.99
2023-05-13T12:15:22.859Z,49.78
2023-05-13T12:17:50.781Z,50.22
2023-05-13T12:20:20.259Z,49.94
2023-05-13T12:22:46.863Z,49.88
2023-05-13T12:25:57.838Z,49.75
2023-05-13T12:28:26.824Z,50.06
2023-05-13T12:31:01.826Z,50.01
2023-05-13T12:33:33.765Z,49.70
2023-05-13T12:36:32.104Z,50.35
2023-05-13T12:39:06.735Z,49.75
2023-05-13T12:41:41.652Z,50.06
2023-05-13T12:44:10.315Z,49.67
2023-05-13T12:46:37.588Z,49.43
2023-05-13T12:49:05.371Z,49.77
2023-05-13T12:51:35.156Z,50.01
2023-05-13T12:54:01.801Z,49.90
2023-05-13T12:56:28.382Z,49.69
2023-05-13T12:58:55.102Z,49.57
2023-05-13T13:01:22.133Z,49.54
2023-05-13T13:03:49.154Z,49.79
2023-05-13T13:06:16.285Z,49.82
2023-05-13T13:08:42.825Z,49.87
2023-05-13T13:11:09.851Z,50.02
2023-05-13T13:13:38.897Z,50.23
2023-05-13T13:16:06.386Z,49.85
2023-05-13T13:18:33.054Z,50.06
2023-05-13T13:20:59.861Z,50.09
2023-05-13T13:23:26.422Z,50.08
2023-05-13T13:25:53.151Z,50.19
2023-05-13T13:28:19.864Z,50.13
2023-05-13T13:30:47.278Z,50.46
2023-05-13T13:33:15.633Z,50.09
2023-05-13T13:35:47.042Z,50.00
2023-05-13T13:38:14.242Z,50.43
2023-05-13T13:40:41.069Z,50.00
2023-05-13T13:43:08.362Z,49.92
2023-05-13T13:45:35.674Z,50.39
2023-05-13T13:48:02.723Z,50.20
2023-05-13T13:50:29.450Z,50.02
2023-05-13T13:52:56.009Z,49.77
2023-05-13T13:55:23.589Z,50.25
2023-05-13T13:57:50.864Z,50.20
2023-05-13T14:00:17.950Z,50.39
2023-05-13T14:02:44.610Z,50.05
2023-05-13T14:05:12.845Z,50.44
2023-05-13T14:07:39.663Z,50.03
2023-05-13T14:10:06.939Z,50.06
2023-05-13T14:12:33.830Z,50.35
2023-05-13T14:15:00.452Z,50.00
2023-05-13T14:17:27.072Z,50.29
2023-05-13T14:19:55.481Z,50.00
2023-05-13T14:22:23.775Z,50.23
2023-05-13T14:24:53.562Z,50.20
2023-05-13T14:27:20.779Z,49.76
2023-05-13T14:29:48.029Z,50.10
2023-05-13T14:32:14.671Z,50.27
2023-05-13T14:34:41.338Z,50.23
2023-05-13T14:37:08.275Z,50.34
2023-05-13T14:39:36.305Z,49.86
2023-05-13T14:42:03.682Z,49.93
2023-05-13T14:44:30.383Z,49.91
2023-05-13T14:46:57.075Z,50.29
2023-05-13T14:49:23.743Z,49.96
2023-05-13T14:51:50.356Z,49.92
2023-05-13T14:54:17.891Z,49.96
2023-05-13T14:56:44.684Z,50.38
2023-05-13T14:59:11.389Z,50.42
2023-05-13T15:01:38.355Z,50.10
2023-05-13T15:04:05.325Z,50.24
2023-05-13T15:06:32.033Z,50.27
2023-05-13T15:08:58.600Z,49.75
2023-05-13T15:11:27.311Z,49.99
2023-05-13T15:13:53.909Z,50.50
2023-05-13T15:16:20.436Z,50.29
2023-05-13T15:18:47.209Z,50.16
2023-05-13T15:21:13.820Z,49.71
2023-05-13T15:23:40.390Z,49.88
2023-05-13T15:26:06.871Z,49.97
2023-05-13T15:28:33.480Z,50.27
2023-05-13T15:31:00.139Z,50.24
2023-05-13T15:33:26.974Z,50.21
2023-05-13T15:35:53.520Z,50.27
2023-05-13T15:38:20.138Z,50.04
2023-05-13T15:40:47.416Z,50.14
2023-05-13T15:43:13.990Z,49.88
2023-05-13T15:45:40.731Z,49.91
2023-05-13T15:48:07.956Z,49.97
2023-05-13T15:50:34.786Z,49.83
2023-05-13T15:53:01.338Z,50.07
2023-05-13T15:55:27.889Z,49.86
2023-05-13T15:57:54.472Z,49.63
2023-05-13T16:00:21.321Z,50.32
2023-05-13T16:02:48.130Z,49.95
2023-05-13T16:05:19.108Z,49.96
2023-05-13T16:07:46.017Z,50.42
2023-05-13T16:10:12.600Z,49.67
2023-05-13T16:12:39.558Z,50.16
2023-05-13T16:15:06.868Z,50.19
2023-05-13T16:17:33.540Z,49.90
2023-05-13T16:20:00.349Z,49.88
2023-05-13T16:22:29.026Z,50.00
2023-05-13T16:25:00.878Z,50.18
2023-05-13T16:27:29.203Z,50.18
2023-05-13T16:29:56.559Z,49.87
2023-05-13T16:32:23.351Z,49.96
2023-05-13T16:34:50.044Z,50.48
2023-05-13T16:37:16.862Z,50.33
2023-05-13T16:39:44.044Z,50.14
2023-05-13T16:42:10.638Z,50.22
2023-05-13T16:44:37.281Z,50.08
2023-05-13T16:47:05.509Z,49.63
2023-05-13T16:49:32.046Z,49.73
2023-05-13T16:51:58.583Z,49.89
2023-05-13T16:54:25.553Z,49.91
2023-05-13T16:56:52.076Z,49.90
2023-05-13T16:59:21.064Z,50.15
2023-05-13T17:01:48.421Z,50.14
2023-05-13T17:04:15.681Z,49.60
2023-05-13T17:06:42.714Z,49.89
2023-05-13T17:09:09.664Z,50.00
2023-05-13T17:11:36.370Z,50.07
2023-05-13T17:14:04.645Z,50.15
2023-05-13T17:16:31.538Z,49.98
2023-05-13T17:19:01.211Z,50.43
2023-05-13T17:21:28.036Z,50.13
2023-05-13T17:23:54.584Z,50.19
2023-05-13T17:26:22.017Z,50.17
2023-05-13T17:28:49.630Z,50.04
2023-05-13T17:31:16.328Z,49.89
2023-05-13T17:33:42.968Z,50.20
2023-05-13T17:36:10.758Z,49.70
2023-05-13T17:38:37.896Z,49.90
2023-05-13T17:41:04.906Z,50.26
2023-05-13T17:43:31.560Z,49.92
2023-05-13T17:45:58.192Z,50.36
2023-05-13T17:48:25.548Z,50.06
2023-05-13T17:50:52.803Z,49.88
2023-05-13T17:53:19.875Z,50.12
2023-05-13T17:55:48.536Z,49.99
2023-05-13T17:58:16.062Z,49.89
2023-05-13T18:00:43.021Z,50.09
2023-05-13T18:03:09.630Z,50.39
2023-05-13T18:05:36.315Z,49.92
2023-05-13T18:08:02.987Z,50.07
2023-05-13T18:10:29.559Z,50.24
2023-05-13T18:12:56.134Z,49.95
2023-05-13T18:15:22.714Z,49.93
2023-05-13T18:17:49.584Z,50.07
2023-05-13T18:20:16.202Z,50.11
2023-05-13T18:22:42.790Z,50.25
2023-05-13T18:25:10.554Z,49.96
2023-05-13T18:27:37.215Z,50.29
2023-05-13T18:30:04.089Z,50.33
2023-05-13T18:32:30.953Z,50.12
2023-05-13T18:34:57.514Z,50.02
2023-05-13T18:37:24.097Z,49.93
2023-05-13T18:39:51.218Z,49.79
2023-05-13T18:42:17.790Z,50.19
2023-05-13T18:44:44.505Z,49.89
2023-05-13T18:47:11.483Z,50.14
2023-05-13T18:49:37.977Z,49.90
2023-05-13T18:52:04.731Z,50.12
2023-05-13T18:54:31.245Z,50.11
2023-05-13T18:56:57.826Z,50.17
2023-05-13T18:59:24.458Z,49.80
2023-05-13T19:01:51.147Z,50.36
2023-05-13T19:04:18.029Z,49.69
2023-05-13T19:06:44.811Z,49.92
2023-05-13T19:09:11.435Z,50.15
2023-05-13T19:11:37.990Z,50.34
2023-05-13T19:14:04.577Z,49.80
2023-05-13T19:16:31.138Z,49.64
2023-05-13T19:18:57.768Z,49.98
2023-05-13T19:21:24.451Z,49.99
2023-05-13T19:23:51.053Z,49.82
2023-05-13T19:26:17.726Z,50.01
2023-05-13T19:28:44.847Z,50.05
2023-05-13T19:31:11.436Z,49.99
2023-05-13T19:33:38.140Z,50.24
2023-05-13T19:36:05.582Z,50.60
2023-05-13T19:38:33.025Z,50.84
2023-05-13T19:40:59.854Z,50.44
2023-05-13T19:43:26.410Z,50.60
2023-05-13T19:45:55.477Z,50.90
2023-05-13T19:48:22.067Z,50.82
2023-05-13T19:50:48.659Z,51.18
2023-05-13T19:53:15.248Z,50.96
2023-05-13T19:55:41.793Z,51.34
2023-05-13T19:58:08.503Z,51.25
2023-05-13T20:00:35.079Z,51.31
2023-05-13T20:03:01.729Z,50.90
2023-05-13T20:05:28.518Z,51.22
2023-05-13T20:07:55.188Z,51.53
2023-05-13T20:10:22.078Z,51.15
2023-05-13T20:12:48.841Z,51.18
2023-05-13T20:15:17.827Z,51.42
2023-05-13T20:17:45.237Z,51.42
2023-05-13T20:20:12.101Z,51.61
2023-05-13T20:22:38.650Z,51.73
2023-05-13T20:25:05.619Z,51.79
2023-05-13T20:27:32.168Z,51.72
2023-05-13T20:30:00.209Z,51.54
2023-05-13T20:32:27.344Z,51.72
2023-05-13T20:34:54.532Z,51.98
2023-05-13T20:37:24.039Z,52.09
2023-05-13T20:39:51.341Z,52.11
2023-05-13T20:42:17.964Z,51.72
2023-05-13T20:44:46.326Z,51.58
2023-05-13T20:47:13.598Z,51.63
2023-05-13T20:49:43.650Z,52.14
2023-05-13T20:52:10.959Z,52.10
2023-05-13T20:54:38.004Z,52.09
2023-05-13T20:57:05.063Z,51.88
2023-05-13T20:59:31.683Z,51.78
2023-05-13T21:01:58.615Z,52.04
2023-05-13T21:04:28.440Z,51.99
2023-05-13T21:06:55.012Z,51.95
2023-05-13T21:09:21.596Z,51.76
2023-05-13T21:11:48.126Z,52.07
2023-05-13T21:14:14.830Z,51.97
2023-05-13T21:16:41.475Z,52.17
2023-05-13T21:19:08.254Z,52.05
2023-05-13T21:21:35.007Z,52.10
2023-05-13T21:24:01.591Z,52.29
2023-05-13T21:26:28.139Z,52.21
2023-05-13T21:28:54.727Z,52.11
2023-05-13T21:31:21.374Z,52.28
2023-05-13T21:33:48.876Z,52.38
2023-05-13T21:36:15.504Z,52.40
2023-05-13T21:38:42.056Z,52.31
2023-05-13T21:41:08.585Z,52.31
2023-05-13T21:43:35.128Z,52.28
2023-05-13T21:46:03.172Z,52.62
2023-05-13T21:48:29.807Z,52.35
2023-05-13T21:50:56.435Z,52.56
2023-05-13T21:53:23.001Z,52.44
2023-05-13T21:55:50.100Z,52.40
2023-05-13T21:58:16.650Z,52.50
2023-05-13T22:00:43.293Z,52.61
2023-05-13T22:03:09.937Z,52.80
2023-05-13T22:05:42.194Z,52.73
2023-05-13T22:08:08.774Z,52.59
2023-05-13T22:10:35.341Z,52.81
2023-05-13T22:13:01.870Z,52.74
2023-05-13T22:15:28.689Z,52.57
2023-05-13T22:17:55.355Z,52.72
2023-05-13T22:20:22.454Z,52.90
2023-05-13T22:22:49.272Z,52.68
2023-05-13T22:25:15.919Z,52.65
2023-05-13T22:27:42.482Z,53.05
2023-05-13T22:30:09.250Z,52.82
2023-05-13T22:32:38.242Z,53.03
2023-05-13T22:35:05.427Z,52.90
2023-05-13T22:37:32.019Z,53.01
2023-05-13T22:39:58.559Z,52.74
2023-05-13T22:42:25.830Z,53.16
2023-05-13T22:44:52.400Z,52.97
2023-05-13T22:47:19.021Z,53.24
2023-05-13T22:49:45.629Z,53.36
2023-05-13T22:52:12.189Z,53.39
2023-05-13T22:54:38.737Z,53.22
2023-05-13T22:57:05.462Z,53.25
2023-05-13T22:59:31.978Z,53.19
2023-05-13T23:01:58.652Z,53.57
2023-05-13T23:04:25.331Z,53.30
2023-05-13T23:06:52.363Z,53.29
2023-05-13T23:09:19.052Z,53.35
2023-05-13T23:11:45.851Z,53.20
2023-05-13T23:14:12.360Z,53.12
2023-05-13T23:16:39.097Z,53.10
2023-05-13T23:19:06.092Z,53.26
2023-05-13T23:21:32.686Z,53.13
2023-05-13T23:23:59.232Z,53.16
2023-05-13T23:26:25.828Z,53.24
2023-05-13T23:28:52.343Z,53.15
2023-05-13T23:31:18.892Z,53.22
2023-05-13T23:33:45.495Z,53.18
2023-05-13T23:36:12.516Z,53.36
2023-05-13T23:41:05.448Z,53.30
2023-05-13T23:43:31.989Z,53.15
2023-05-13T23:45:58.626Z,53.45
2023-05-13T23:48:27.478Z,53.04
2023-05-13T23:50:54.444Z,53.24
2023-05-13T23:53:20.981Z,53.12
2023-05-13T23:55:47.535Z,53.27
2023-05-13T23:58:14.085Z,53.13
